Time;durP1;ratioP1;P1;durP2;ratioP2;P2;SDS_P1;SDS_P2;PMS_P1;PMS_P2;Temp;Humidity;BMP_temperature;BMP_pressure;BME280_temperature;BME280_humidity;BME280_pressure;Samples;Min_cycle;Max_cycle;Signal;HPM_P1;HPM_P2
2022/06/06 00:02:19;;;;;;;4.40;4.00;;;14.80;99.90;;;;;;4974919;28;20436;-86
2022/06/06 00:04:45;;;;;;;4.23;3.83;;;14.70;99.90;;;;;;4988340;28;20192;-87
2022/06/06 00:07:10;;;;;;;3.30;3.00;;;14.70;99.90;;;;;;4978021;28;20185;-87
2022/06/06 00:09:36;;;;;;;3.90;3.60;;;14.80;99.90;;;;;;4978476;28;20888;-87
2022/06/06 00:12:03;;;;;;;5.47;3.43;;;14.70;99.90;;;;;;4970828;28;20852;-86
2022/06/06 00:14:29;;;;;;;3.60;3.30;;;14.70;99.90;;;;;;4990629;28;20275;-85
2022/06/06 00:16:55;;;;;;;6.73;4.73;;;14.80;99.90;;;;;;4969737;28;20449;-86
2022/06/06 00:19:21;;;;;;;4.10;3.80;;;14.80;99.90;;;;;;4970309;28;20225;-86
2022/06/06 00:21:48;;;;;;;4.13;3.73;;;14.80;99.90;;;;;;4973167;28;20308;-87
2022/06/06 00:24:14;;;;;;;4.77;3.57;;;14.80;99.90;;;;;;4974549;28;20447;-86
2022/06/06 00:26:40;;;;;;;6.23;4.27;;;14.80;99.90;;;;;;4976426;28;20440;-86
2022/06/06 00:29:06;;;;;;;4.27;3.87;;;14.80;99.90;;;;;;4971384;28;21024;-87
2022/06/06 00:37:04;;;;;;;4.30;3.90;;;14.80;99.90;;;;;;4973815;28;20529;-87
2022/06/06 00:39:30;;;;;;;4.73;4.43;;;14.80;99.90;;;;;;4978746;28;21942;-87
2022/06/06 00:41:56;;;;;;;4.23;3.83;;;14.80;99.90;;;;;;4972762;28;20463;-86
2022/06/06 00:44:31;;;;;;;4.10;3.67;;;14.80;99.90;;;;;;4988455;28;20216;-87
2022/06/06 00:47:16;;;;;;;4.20;3.80;;;14.90;99.90;;;;;;4979781;28;20176;-87
2022/06/06 00:49:51;;;;;;;4.73;4.33;;;14.80;99.90;;;;;;4989301;28;20458;-86
2022/06/06 00:52:30;;;;;;;4.87;4.57;;;14.70;99.90;;;;;;4974767;28;21076;-86
2022/06/06 00:55:01;;;;;;;4.50;4.10;;;14.80;99.90;;;;;;4964951;28;20448;-86
2022/06/06 00:57:32;;;;;;;4.90;4.03;;;14.80;99.90;;;;;;4986264;28;20448;-86
2022/06/06 01:00:00;;;;;;;4.40;4.10;;;14.70;99.90;;;;;;4971040;28;20452;-87
2022/06/06 01:02:26;;;;;;;4.77;4.37;;;14.70;99.90;;;;;;4972400;28;20475;-86
2022/06/06 01:05:08;;;;;;;5.03;4.40;;;14.60;99.90;;;;;;4983419;28;20452;-86
2022/06/06 01:07:34;;;;;;;4.73;4.33;;;14.70;99.90;;;;;;4973118;28;20530;-86
2022/06/06 01:10:00;;;;;;;6.87;4.20;;;14.70;99.90;;;;;;4976704;28;20834;-86
2022/06/06 01:12:26;;;;;;;4.63;4.23;;;14.70;99.90;;;;;;4970941;28;20284;-86
2022/06/06 01:15:00;;;;;;;4.07;3.63;;;14.70;99.90;;;;;;4970508;28;20517;-85
2022/06/06 01:17:41;;;;;;;4.40;4.00;;;14.70;99.90;;;;;;4981956;28;20518;-86
2022/06/06 01:20:07;;;;;;;3.93;3.60;;;14.70;99.90;;;;;;4973448;28;20497;-86
2022/06/06 01:22:39;;;;;;;4.57;4.17;;;14.70;99.90;;;;;;4964939;28;20459;-86
2022/06/06 01:25:16;;;;;;;4.80;4.30;;;14.70;99.90;;;;;;4971404;28;21008;-85
2022/06/06 01:28:05;;;;;;;4.53;4.13;;;14.60;99.90;;;;;;4986290;28;21558;-85
2022/06/06 01:30:41;;;;;;;4.37;3.97;;;14.60;99.90;;;;;;4964788;28;20451;-86
2022/06/06 01:33:11;;;;;;;5.57;4.20;;;14.60;99.90;;;;;;4978746;28;21241;-86
2022/06/06 01:35:43;;;;;;;5.97;4.67;;;14.60;99.90;;;;;;4995398;28;20447;-86
2022/06/06 01:38:12;;;;;;;4.93;4.30;;;14.50;99.90;;;;;;4969908;28;20465;-86
2022/06/06 01:41:00;;;;;;;6.40;4.80;;;14.50;99.90;;;;;;4970675;28;21041;-86
2022/06/06 01:43:34;;;;;;;6.70;4.63;;;14.50;99.90;;;;;;4972255;28;21080;-85
2022/06/06 01:46:04;;;;;;;4.47;4.10;;;14.50;99.90;;;;;;4968519;28;20456;-86
2022/06/06 01:48:37;;;;;;;4.87;4.37;;;14.40;99.90;;;;;;4977179;28;23400;-86
2022/06/06 01:51:16;;;;;;;4.80;4.30;;;14.40;99.90;;;;;;4976000;28;20630;-86
2022/06/06 01:53:43;;;;;;;6.03;4.70;;;14.50;99.90;;;;;;4983542;28;20447;-86
2022/06/06 01:56:12;;;;;;;4.67;4.37;;;14.50;99.90;;;;;;4967611;28;20566;-86
2022/06/06 01:58:38;;;;;;;4.30;3.90;;;14.50;99.90;;;;;;4982864;28;20582;-86
2022/06/06 02:01:04;;;;;;;4.57;4.27;;;14.50;99.90;;;;;;4976497;28;20521;-86
2022/06/06 02:03:32;;;;;;;4.97;4.60;;;14.40;99.90;;;;;;4988936;28;20216;-86
2022/06/06 02:05:58;;;;;;;5.27;4.77;;;14.40;99.90;;;;;;4975462;28;20199;-86
2022/06/06 02:08:24;;;;;;;4.47;4.13;;;14.30;99.90;;;;;;4975938;28;20445;-86
2022/06/06 02:10:50;;;;;;;5.20;4.70;;;14.30;99.90;;;;;;4971678;28;20192;-86
2022/06/06 02:13:16;;;;;;;4.80;4.40;;;14.30;99.90;;;;;;4977700;28;20440;-86
2022/06/06 02:15:42;;;;;;;5.10;4.70;;;14.30;99.90;;;;;;4968962;28;20193;-86
2022/06/06 02:18:09;;;;;;;4.30;3.93;;;14.30;99.90;;;;;;4972415;28;20482;-86
2022/06/06 02:20:35;;;;;;;4.93;4.43;;;14.30;99.90;;;;;;4975203;28;20921;-86
2022/06/06 02:23:01;;;;;;;4.70;4.40;;;14.20;99.90;;;;;;4967443;28;20841;-86
2022/06/06 02:25:29;;;;;;;4.47;4.07;;;14.20;99.90;;;;;;4972408;28;20488;-86
2022/06/06 02:27:55;;;;;;;4.93;4.53;;;14.10;99.90;;;;;;4989482;28;20454;-86
2022/06/06 02:30:23;;;;;;;5.23;4.83;;;14.10;99.90;;;;;;4976831;28;20448;-86
2022/06/06 02:32:49;;;;;;;6.97;4.90;;;14.00;99.90;;;;;;4971388;28;21012;-86
2022/06/06 02:35:18;;;;;;;5.40;4.90;;;14.00;99.90;;;;;;4974193;28;20455;-85
2022/06/06 02:37:45;;;;;;;5.80;5.20;;;14.00;99.90;;;;;;4985715;28;21154;-85
2022/06/06 02:40:12;;;;;;;6.63;4.40;;;13.90;99.90;;;;;;4987606;28;21407;-86
2022/06/06 02:42:38;;;;;;;7.03;5.77;;;13.90;99.90;;;;;;4974946;28;20439;-86
2022/06/06 02:45:09;;;;;;;5.00;4.60;;;13.90;99.90;;;;;;4972751;28;20683;-86
2022/06/06 02:47:35;;;;;;;5.17;4.77;;;13.90;99.90;;;;;;4973105;28;20444;-86
2022/06/06 02:50:01;;;;;;;5.83;5.33;;;13.90;99.90;;;;;;4986230;28;20482;-86
2022/06/06 02:52:26;;;;;;;5.27;4.70;;;13.90;99.90;;;;;;4978276;28;21144;-85
2022/06/06 02:54:52;;;;;;;6.50;4.90;;;13.90;99.90;;;;;;4972882;28;20197;-87
2022/06/06 02:57:18;;;;;;;5.80;4.37;;;14.00;99.90;;;;;;4967987;28;20192;-86
2022/06/06 02:59:47;;;;;;;3.93;3.60;;;13.90;99.90;;;;;;4974731;28;20978;-85
2022/06/06 03:02:13;;;;;;;4.77;4.30;;;13.90;99.90;;;;;;4974611;28;20189;-85
2022/06/06 03:04:48;;;;;;;5.40;4.90;;;13.90;99.90;;;;;;4972007;28;20996;-86
2022/06/06 03:07:55;;;;;;;5.00;4.50;;;13.90;99.90;;;;;;4972188;28;20185;-86
2022/06/06 03:10:33;;;;;;;4.87;4.53;;;13.90;99.90;;;;;;4976189;28;20456;-86
2022/06/06 03:13:36;;;;;;;5.20;4.80;;;13.90;99.90;;;;;;4968445;28;20769;-86
2022/06/06 03:22:55;;;;;;;4.57;4.20;;;13.80;99.90;;;;;;4957983;28;20491;-85
2022/06/06 03:25:59;;;;;;;5.30;4.20;;;13.80;99.90;;;;;;4970871;28;20449;-86
2022/06/06 03:28:50;;;;;;;4.77;4.47;;;13.80;99.90;;;;;;4970595;28;20946;-86
2022/06/06 03:31:41;;;;;;;4.70;4.33;;;13.80;99.90;;;;;;4981313;28;20525;-86
2022/06/06 03:34:27;;;;;;;5.00;4.63;;;13.80;99.90;;;;;;4984218;28;21349;-86
2022/06/06 03:37:01;;;;;;;4.83;4.40;;;13.80;99.90;;;;;;4983365;28;20478;-86
2022/06/06 03:39:34;;;;;;;4.53;4.13;;;13.80;99.90;;;;;;4980601;28;20482;-86
2022/06/06 03:42:10;;;;;;;4.47;3.97;;;13.80;99.90;;;;;;4981543;28;20531;-86
2022/06/06 03:45:01;;;;;;;5.40;4.90;;;13.80;99.90;;;;;;4984139;28;20449;-86
2022/06/06 03:47:55;;;;;;;5.23;4.77;;;13.80;99.90;;;;;;4987778;28;21033;-86
2022/06/06 03:50:43;;;;;;;4.60;4.30;;;13.70;99.90;;;;;;4981464;28;20621;-86
2022/06/06 03:53:21;;;;;;;5.73;5.23;;;13.70;99.90;;;;;;4981643;28;20450;-86
2022/06/06 03:56:05;;;;;;;4.90;4.50;;;13.70;99.90;;;;;;4978305;28;20436;-86
2022/06/06 03:58:32;;;;;;;3.87;3.63;;;13.60;99.90;;;;;;4990273;28;20532;-86
2022/06/06 04:01:06;;;;;;;3.93;3.73;;;13.70;99.90;;;;;;4986203;28;20954;-86
2022/06/06 04:03:33;;;;;;;4.63;4.33;;;13.70;99.90;;;;;;4976998;28;20441;-86
2022/06/06 04:06:01;;;;;;;4.17;3.77;;;13.70;99.90;;;;;;4976286;28;21166;-86
2022/06/06 04:08:27;;;;;;;4.33;4.03;;;13.70;99.90;;;;;;4977274;28;20499;-86
2022/06/06 04:11:30;;;;;;;4.63;4.00;;;13.80;99.90;;;;;;4977044;28;20444;-86
2022/06/06 04:14:07;;;;;;;4.03;3.73;;;13.80;99.90;;;;;;4980834;28;20660;-86
2022/06/06 04:16:57;;;;;;;4.47;4.07;;;13.90;99.90;;;;;;4974924;28;20451;-86
2022/06/06 04:19:32;;;;;;;5.47;4.57;;;13.90;99.90;;;;;;4979119;28;20601;-86
2022/06/06 04:22:38;;;;;;;6.17;4.80;;;13.90;99.90;;;;;;4993995;28;20458;-86
2022/06/06 04:25:13;;;;;;;8.17;5.33;;;14.00;99.90;;;;;;4974700;28;20443;-86
2022/06/06 04:27:43;;;;;;;5.20;4.70;;;14.10;99.90;;;;;;4981272;28;20444;-86
2022/06/06 04:30:30;;;;;;;5.87;5.37;;;14.20;99.90;;;;;;4976789;28;20461;-87
2022/06/06 04:33:18;;;;;;;6.97;4.90;;;14.30;99.90;;;;;;4980450;28;20456;-86
2022/06/06 04:36:03;;;;;;;5.50;5.10;;;14.40;99.90;;;;;;4982094;28;20455;-86
2022/06/06 04:38:50;;;;;;;5.60;5.10;;;14.50;99.90;;;;;;4986254;28;21119;-86
2022/06/06 04:41:26;;;;;;;5.33;4.93;;;14.60;99.90;;;;;;5008104;28;20439;-86
2022/06/06 04:44:16;;;;;;;5.20;4.77;;;14.70;99.90;;;;;;4975697;28;20439;-86
2022/06/06 04:46:51;;;;;;;7.07;5.37;;;14.90;99.90;;;;;;4969715;28;21055;-86
2022/06/06 04:49:17;;;;;;;5.30;4.90;;;15.00;99.90;;;;;;4970151;28;20949;-86
2022/06/06 04:51:44;;;;;;;5.13;4.63;;;15.10;99.90;;;;;;4976905;28;22164;-86
2022/06/06 04:54:20;;;;;;;5.27;4.87;;;15.10;99.90;;;;;;4974246;28;20449;-86
2022/06/06 04:56:46;;;;;;;7.73;5.13;;;15.20;99.90;;;;;;4972673;28;20454;-86
2022/06/06 04:59:13;;;;;;;5.80;5.30;;;15.20;99.90;;;;;;4986772;28;20689;-86
2022/06/06 05:01:40;;;;;;;6.00;5.50;;;15.20;99.90;;;;;;4957574;28;20919;-85
2022/06/06 05:04:06;;;;;;;6.07;5.57;;;15.30;99.90;;;;;;4971090;28;20484;-86
2022/06/06 05:06:52;;;;;;;5.73;5.23;;;15.50;99.90;;;;;;4975170;28;22101;-86
2022/06/06 05:09:39;;;;;;;6.10;5.60;;;15.60;99.90;;;;;;4974143;28;20440;-86
2022/06/06 05:12:18;;;;;;;5.60;5.20;;;15.60;99.90;;;;;;4970661;28;20455;-87
2022/06/06 05:15:05;;;;;;;6.00;5.50;;;15.60;99.90;;;;;;4999674;28;20467;-86
2022/06/06 05:18:00;;;;;;;5.83;5.20;;;15.60;99.90;;;;;;4965710;28;20504;-86
2022/06/06 05:21:04;;;;;;;5.77;5.17;;;15.70;99.90;;;;;;4973584;28;20464;-86
2022/06/06 05:24:02;;;;;;;5.43;4.93;;;15.70;99.90;;;;;;4976832;28;20446;-86
2022/06/06 05:27:04;;;;;;;6.03;5.50;;;15.70;99.90;;;;;;4978921;28;20582;-86
2022/06/06 05:30:09;;;;;;;5.57;5.07;;;15.80;99.90;;;;;;4963407;28;20879;-86
2022/06/06 05:32:49;;;;;;;5.80;5.30;;;15.70;99.90;;;;;;4987027;28;20537;-86
2022/06/06 05:35:42;;;;;;;5.80;4.73;;;15.60;99.90;;;;;;4978002;28;20789;-86
2022/06/06 05:38:31;;;;;;;4.77;4.47;;;15.70;99.90;;;;;;4974997;28;20969;-87
2022/06/06 05:41:11;;;;;;;4.83;4.43;;;15.80;99.90;;;;;;4976741;28;20460;-87
2022/06/06 05:43:53;;;;;;;6.00;4.87;;;15.90;99.90;;;;;;4977053;28;20436;-87
2022/06/06 05:46:49;;;;;;;5.37;4.87;;;15.90;99.90;;;;;;4985843;28;20439;-86
2022/06/06 05:49:40;;;;;;;5.27;4.87;;;16.00;99.90;;;;;;5000481;28;20857;-86
2022/06/06 05:52:41;;;;;;;4.80;4.50;;;16.10;99.90;;;;;;4964653;28;20508;-85
2022/06/06 05:55:13;;;;;;;5.20;4.80;;;16.20;99.90;;;;;;4986615;28;20940;-86
2022/06/06 05:58:02;;;;;;;5.13;4.73;;;16.30;99.90;;;;;;5002118;28;20438;-86
2022/06/06 06:01:06;;;;;;;5.17;4.73;;;16.40;99.90;;;;;;4991675;28;20447;-86
2022/06/06 06:03:31;;;;;;;6.20;5.67;;;16.30;99.90;;;;;;4968948;28;20498;-86
2022/06/06 06:06:22;;;;;;;6.10;5.70;;;16.30;99.90;;;;;;4990755;28;20861;-86
2022/06/06 06:09:02;;;;;;;5.53;5.13;;;16.30;99.90;;;;;;4967088;28;20742;-86
2022/06/06 06:12:04;;;;;;;7.53;5.30;;;16.50;99.90;;;;;;4981838;28;20555;-88
2022/06/06 06:15:06;;;;;;;5.40;5.00;;;16.60;99.90;;;;;;4966672;28;21070;-86
2022/06/06 06:17:34;;;;;;;5.27;4.87;;;16.70;99.90;;;;;;4972561;28;20443;-86
2022/06/06 06:20:00;;;;;;;5.90;5.40;;;16.70;99.90;;;;;;4964081;28;21064;-86
2022/06/06 06:22:30;;;;;;;5.47;5.07;;;16.80;99.90;;;;;;4963784;28;20480;-86
2022/06/06 06:25:01;;;;;;;5.23;4.73;;;17.00;99.90;;;;;;4933499;28;20366;-85
2022/06/06 06:27:28;;;;;;;5.50;5.10;;;17.20;99.90;;;;;;4955693;28;22976;-85
2022/06/06 06:29:54;;;;;;;6.13;5.50;;;17.30;99.90;;;;;;4964669;28;20635;-86
2022/06/06 06:32:36;;;;;;;4.93;4.50;;;17.30;99.90;;;;;;4972466;28;20515;-87
2022/06/06 06:35:21;;;;;;;5.20;4.80;;;17.30;99.90;;;;;;4966085;28;20188;-86
2022/06/06 06:38:25;;;;;;;10.30;5.10;;;17.60;99.90;;;;;;4967596;28;20456;-89
2022/06/06 06:41:05;;;;;;;6.03;5.43;;;17.50;99.90;;;;;;4971060;28;20550;-90
2022/06/06 06:43:45;;;;;;;5.17;4.77;;;17.50;99.90;;;;;;4969903;28;20455;-89
2022/06/06 06:46:19;;;;;;;5.40;5.00;;;17.50;99.90;;;;;;4968111;28;20541;-84
2022/06/06 06:48:46;;;;;;;32.70;30.30;;;17.70;99.90;;;;;;4969802;28;20562;-87
2022/06/06 06:51:39;;;;;;;6.73;6.23;;;17.70;99.90;;;;;;4977464;28;20479;-87
2022/06/06 06:54:13;;;;;;;6.00;5.50;;;18.00;99.90;;;;;;4974872;28;20452;-86
2022/06/06 06:56:45;;;;;;;5.33;4.83;;;18.20;99.90;;;;;;4972375;28;20963;-86
2022/06/06 06:59:30;;;;;;;5.90;5.50;;;18.20;99.90;;;;;;4976957;28;20483;-87
2022/06/06 07:08:34;;;;;;;5.13;4.83;;;18.10;99.90;;;;;;4978025;28;20471;-86
2022/06/06 07:11:57;;;;;;;5.23;4.83;;;18.20;99.90;;;;;;4977438;28;20531;-86
2022/06/06 07:14:51;;;;;;;5.67;5.20;;;18.40;99.90;;;;;;4951686;28;20450;-89
2022/06/06 07:17:18;;;;;;;6.10;5.50;;;18.70;99.90;;;;;;4990310;28;20436;-86
2022/06/06 07:20:01;;;;;;;5.63;5.17;;;19.00;99.90;;;;;;4972351;28;20567;-87
2022/06/06 07:22:59;;;;;;;6.30;5.37;;;19.10;99.90;;;;;;4992914;28;20442;-86
2022/06/06 07:25:22;;;;;;;6.10;5.60;;;19.20;99.90;;;;;;4978431;28;20449;-86
2022/06/06 07:27:48;;;;;;;6.73;6.03;;;19.40;99.90;;;;;;4980163;28;20586;-87
2022/06/06 07:30:14;;;;;;;5.00;4.70;;;19.50;99.90;;;;;;4976372;28;20458;-87
2022/06/06 07:32:56;;;;;;;5.87;5.37;;;19.60;99.90;;;;;;5001005;28;20174;-87
2022/06/06 07:35:34;;;;;;;5.13;4.73;;;19.70;99.90;;;;;;4987170;28;20280;-87
2022/06/06 07:38:18;;;;;;;5.20;4.80;;;19.50;99.90;;;;;;4978588;28;20447;-87
2022/06/06 07:40:55;;;;;;;5.50;5.10;;;19.40;99.90;;;;;;4980742;28;20625;-87
2022/06/06 07:43:46;;;;;;;4.97;4.63;;;19.40;99.90;;;;;;4998247;28;20444;-87
2022/06/06 07:46:23;;;;;;;4.70;4.40;;;19.40;99.90;;;;;;4975850;28;20451;-87
2022/06/06 07:49:08;;;;;;;5.47;5.07;;;19.50;99.90;;;;;;4977847;28;20486;-84
2022/06/06 07:51:51;;;;;;;7.60;5.23;;;19.60;99.90;;;;;;4978204;28;20444;-86
2022/06/06 07:54:44;;;;;;;6.07;4.43;;;19.60;99.90;;;;;;4977686;28;21556;-83
2022/06/06 07:57:33;;;;;;;5.67;5.27;;;19.50;99.90;;;;;;4981892;28;20447;-84
2022/06/06 08:00:12;;;;;;;5.00;4.50;;;19.50;99.90;;;;;;4980472;28;20477;-84
2022/06/06 08:03:18;;;;;;;6.10;4.77;;;19.80;99.90;;;;;;4990790;28;20525;-84
2022/06/06 08:05:58;;;;;;;4.83;4.43;;;20.00;99.90;;;;;;4920753;28;20649;-83
2022/06/06 08:08:51;;;;;;;5.57;5.17;;;19.80;99.90;;;;;;4922920;28;20449;-84
2022/06/06 08:11:36;;;;;;;4.77;4.47;;;20.10;99.90;;;;;;4967351;28;20448;-84
2022/06/06 08:14:17;;;;;;;4.70;4.40;;;20.40;99.90;;;;;;4989136;28;20441;-84
2022/06/06 08:17:03;;;;;;;5.10;4.70;;;20.30;99.90;;;;;;4979966;28;20495;-84
2022/06/06 08:19:50;;;;;;;5.07;4.67;;;20.40;99.90;;;;;;4973712;28;20519;-84
2022/06/06 08:22:16;;;;;;;5.30;4.83;;;20.60;99.90;;;;;;4979635;28;20799;-83
2022/06/06 08:24:45;;;;;;;4.93;4.53;;;20.80;99.90;;;;;;4980409;28;20447;-83
2022/06/06 08:27:15;;;;;;;5.33;4.83;;;20.50;99.90;;;;;;4972346;28;21167;-83
2022/06/06 08:30:10;;;;;;;4.87;4.50;;;20.50;99.90;;;;;;4953237;28;20966;-83
2022/06/06 08:33:08;;;;;;;4.80;4.40;;;20.00;99.90;;;;;;4948138;28;20490;-84
2022/06/06 08:35:41;;;;;;;7.60;5.20;;;20.40;99.90;;;;;;4950005;28;20921;-84
2022/06/06 08:38:17;;;;;;;3.80;3.60;;;20.50;99.90;;;;;;4960312;28;20468;-85
2022/06/06 08:41:13;;;;;;;4.00;3.70;;;20.50;99.90;;;;;;4946837;28;20811;-83
2022/06/06 08:44:04;;;;;;;4.70;4.30;;;20.50;99.90;;;;;;4978071;28;20428;-84
2022/06/06 08:46:49;;;;;;;4.00;3.70;;;20.90;99.90;;;;;;4972307;28;21756;-84
2022/06/06 08:52:34;;;;;;;4.10;3.80;;;21.20;99.90;;;;;;4944062;28;21021;-87
2022/06/06 08:55:19;;;;;;;4.40;3.67;;;21.30;99.90;;;;;;4963694;28;20560;-88
2022/06/06 08:58:26;;;;;;;5.43;4.10;;;21.50;99.90;;;;;;4963872;28;20540;-87
2022/06/06 09:01:32;;;;;;;3.97;3.50;;;21.80;99.90;;;;;;4944547;28;20452;-85
2022/06/06 09:04:19;;;;;;;3.50;3.30;;;21.80;99.90;;;;;;4966624;28;20580;-86
2022/06/06 09:07:22;;;;;;;3.27;2.97;;;22.10;99.90;;;;;;4974531;28;20452;-87
2022/06/06 09:10:26;;;;;;;3.57;3.10;;;22.20;99.90;;;;;;4968484;28;20440;-87
2022/06/06 09:13:27;;;;;;;3.90;3.53;;;21.70;99.90;;;;;;4961630;28;20765;-86
2022/06/06 09:16:41;;;;;;;3.83;3.50;;;21.70;99.90;;;;;;4971726;28;20448;-85
2022/06/06 09:19:47;;;;;;;3.03;2.83;;;21.90;99.90;;;;;;4959415;28;20481;-85
2022/06/06 09:22:44;;;;;;;3.70;2.80;;;22.00;99.40;;;;;;4980018;28;20922;-85
2022/06/06 09:25:20;;;;;;;3.20;3.00;;;21.30;98.50;;;;;;4963691;28;20444;-85
2022/06/06 09:27:57;;;;;;;3.00;2.80;;;21.30;99.80;;;;;;4963363;28;20494;-85
2022/06/06 09:30:44;;;;;;;2.60;2.50;;;21.80;99.80;;;;;;4996207;28;20436;-86
2022/06/06 09:33:38;;;;;;;3.40;3.10;;;22.40;98.30;;;;;;4996180;28;20433;-86
2022/06/06 09:36:23;;;;;;;3.23;2.90;;;22.10;97.70;;;;;;5000228;28;20437;-86
2022/06/06 09:39:08;;;;;;;3.13;2.93;;;21.90;98.80;;;;;;4978243;28;20461;-86
2022/06/06 09:41:36;;;;;;;2.80;2.60;;;22.10;98.00;;;;;;4983132;28;21021;-86
2022/06/06 09:44:40;;;;;;;3.00;2.80;;;22.20;97.90;;;;;;4979629;28;20436;-86
2022/06/06 09:47:38;;;;;;;3.73;3.43;;;22.20;97.90;;;;;;4969511;28;20968;-86
2022/06/06 09:50:34;;;;;;;3.40;3.13;;;22.30;98.00;;;;;;4979039;28;20977;-86
2022/06/06 09:53:38;;;;;;;3.50;3.20;;;22.60;98.10;;;;;;4977477;28;20440;-85
2022/06/06 10:00:12;;;;;;;2.37;2.27;;;22.90;96.20;;;;;;4963333;28;20574;-85
2022/06/06 10:03:12;;;;;;;2.90;2.70;;;23.00;94.30;;;;;;4970406;28;20693;-86
2022/06/06 10:06:13;;;;;;;2.70;2.50;;;23.30;94.30;;;;;;4973866;28;20444;-86
2022/06/06 10:08:52;;;;;;;2.80;2.60;;;23.30;93.90;;;;;;4976817;28;20436;-85
2022/06/06 10:11:19;;;;;;;3.50;2.57;;;23.60;93.60;;;;;;4973051;28;20449;-86
2022/06/06 10:13:57;;;;;;;2.90;2.70;;;23.60;93.60;;;;;;4977211;28;20536;-85
2022/06/06 10:17:01;;;;;;;2.70;2.50;;;23.60;93.10;;;;;;4973613;28;20584;-86
2022/06/06 10:19:41;;;;;;;2.90;2.70;;;24.20;92.00;;;;;;4964459;28;21041;-86
2022/06/06 10:22:39;;;;;;;2.30;2.10;;;24.00;92.10;;;;;;4976154;28;20460;-86
2022/06/06 10:25:23;;;;;;;2.73;2.50;;;24.00;91.20;;;;;;4967806;28;20441;-87
2022/06/06 10:28:05;;;;;;;2.63;2.43;;;24.20;91.80;;;;;;4961696;28;20533;-87
2022/06/06 10:31:04;;;;;;;2.50;2.40;;;24.10;91.80;;;;;;4967377;28;20507;-86
2022/06/06 10:33:49;;;;;;;2.63;2.30;;;24.00;91.40;;;;;;4975468;28;20453;-86
2022/06/06 10:36:30;;;;;;;2.50;2.30;;;24.00;91.80;;;;;;4985533;28;20455;-86
2022/06/06 10:39:01;;;;;;;3.30;3.00;;;23.90;91.70;;;;;;4974931;28;21948;-86
2022/06/06 10:41:55;;;;;;;2.90;2.70;;;23.50;92.20;;;;;;4975004;28;22537;-86
2022/06/06 10:44:41;;;;;;;2.87;2.70;;;23.30;93.00;;;;;;4964162;28;20528;-86
2022/06/06 10:47:36;;;;;;;2.90;2.70;;;23.70;93.40;;;;;;4970552;28;20449;-86
2022/06/06 10:50:11;;;;;;;2.80;2.60;;;24.10;91.90;;;;;;4965090;28;20440;-86
2022/06/06 10:53:15;;;;;;;2.60;2.40;;;24.10;92.00;;;;;;4990914;28;20444;-86
2022/06/06 10:56:08;;;;;;;3.20;3.00;;;24.30;92.80;;;;;;4998174;28;20437;-86
2022/06/06 10:58:47;;;;;;;3.13;2.90;;;24.60;91.60;;;;;;4980767;28;20492;-85
2022/06/06 11:01:18;;;;;;;2.27;2.17;;;24.70;92.10;;;;;;4970656;28;21544;-86
2022/06/06 11:04:21;;;;;;;2.70;2.60;;;24.80;91.30;;;;;;4981342;28;20428;-86
2022/06/06 11:07:30;;;;;;;2.33;2.13;;;24.90;90.80;;;;;;4964303;28;20574;-86
2022/06/06 11:10:25;;;;;;;2.00;1.90;;;24.70;90.10;;;;;;4967402;28;20488;-86
2022/06/06 11:13:24;;;;;;;2.33;2.23;;;24.80;88.80;;;;;;4963440;28;20872;-86
2022/06/06 11:16:12;;;;;;;2.40;2.30;;;24.60;89.40;;;;;;4968465;28;20580;-86
2022/06/06 11:19:19;;;;;;;2.40;2.20;;;24.90;88.20;;;;;;4984387;28;21530;-85
2022/06/06 11:22:00;;;;;;;4.17;2.60;;;25.10;87.70;;;;;;4963054;28;20455;-86
2022/06/06 11:24:47;;;;;;;2.87;2.57;;;24.90;89.60;;;;;;4962599;28;21152;-86
2022/06/06 11:27:41;;;;;;;2.57;2.27;;;25.10;88.90;;;;;;4973009;28;20446;-86
2022/06/06 11:30:19;;;;;;;2.20;2.10;;;25.10;89.40;;;;;;4983064;28;20469;-86
2022/06/06 11:33:02;;;;;;;2.77;2.20;;;24.70;89.90;;;;;;4974169;28;20962;-86
2022/06/06 11:35:52;;;;;;;2.70;2.50;;;24.90;90.00;;;;;;4983005;28;20540;-86
2022/06/06 11:38:40;;;;;;;2.70;2.50;;;25.20;87.50;;;;;;4977856;28;20481;-87
2022/06/06 11:41:44;;;;;;;2.37;2.20;;;24.90;87.90;;;;;;4976635;28;20959;-86
2022/06/06 11:44:25;;;;;;;2.03;1.93;;;25.00;86.20;;;;;;4979595;28;20470;-86
2022/06/06 11:47:26;;;;;;;2.53;2.27;;;25.20;86.00;;;;;;4964678;28;20523;-87
2022/06/06 11:50:10;;;;;;;1.73;1.63;;;25.60;86.90;;;;;;4967430;28;20495;-86
2022/06/06 11:52:55;;;;;;;2.60;2.40;;;26.40;85.20;;;;;;4974759;28;21108;-86
2022/06/06 11:55:39;;;;;;;2.30;2.10;;;26.80;80.10;;;;;;4978685;28;20468;-86
2022/06/06 11:58:21;;;;;;;2.17;2.07;;;26.10;81.30;;;;;;4977969;28;21038;-86
2022/06/06 12:00:55;;;;;;;2.40;2.20;;;25.40;82.10;;;;;;4978146;28;20464;-86
2022/06/06 12:03:36;;;;;;;2.00;1.90;;;25.80;81.30;;;;;;4977949;28;20437;-86
2022/06/06 12:06:17;;;;;;;2.30;2.20;;;25.80;78.80;;;;;;4981567;28;20483;-87
2022/06/06 12:09:18;;;;;;;2.33;2.07;;;25.60;80.80;;;;;;4979093;28;20436;-86
2022/06/06 12:11:56;;;;;;;2.87;2.53;;;25.00;80.20;;;;;;4969693;28;20871;-86
2022/06/06 12:14:45;;;;;;;2.47;2.27;;;24.40;84.30;;;;;;4977691;28;20476;-86
2022/06/06 12:17:33;;;;;;;2.30;2.20;;;24.20;86.40;;;;;;4962929;28;20448;-86
2022/06/06 12:20:09;;;;;;;3.20;2.30;;;24.20;85.90;;;;;;4965990;28;20917;-86
2022/06/06 12:22:48;;;;;;;4.23;2.37;;;24.30;85.90;;;;;;4977173;28;20512;-86
2022/06/06 12:25:46;;;;;;;2.30;2.10;;;24.20;86.40;;;;;;4960286;28;20452;-86
2022/06/06 12:28:55;;;;;;;2.23;2.13;;;23.70;85.60;;;;;;4977752;28;20508;-86
2022/06/06 12:31:27;;;;;;;2.10;2.00;;;23.80;87.60;;;;;;4978467;28;20867;-87
2022/06/06 12:34:07;;;;;;;2.50;2.40;;;23.00;89.50;;;;;;4977342;28;20954;-86
2022/06/06 12:36:35;;;;;;;2.53;2.10;;;23.10;90.40;;;;;;4969986;28;20444;-85
2022/06/06 12:39:12;;;;;;;3.10;2.20;;;23.80;90.10;;;;;;4977761;28;20482;-86
2022/06/06 12:42:03;;;;;;;2.40;2.20;;;24.20;88.10;;;;;;4978215;28;20524;-86
2022/06/06 12:44:54;;;;;;;2.30;2.10;;;25.00;88.00;;;;;;4981257;28;20573;-86
2022/06/06 12:47:38;;;;;;;2.80;2.60;;;24.80;84.50;;;;;;4964353;28;20543;-86
2022/06/06 12:50:12;;;;;;;2.10;2.00;;;25.20;84.70;;;;;;4989582;28;20445;-87
2022/06/06 12:53:02;;;;;;;2.57;2.37;;;25.40;81.00;;;;;;4971996;28;20441;-86
2022/06/06 12:55:33;;;;;;;2.80;2.60;;;25.30;85.00;;;;;;4961747;28;20449;-86
2022/06/06 12:58:15;;;;;;;2.50;2.30;;;25.00;84.30;;;;;;4965863;28;20444;-87
2022/06/06 13:03:47;;;;;;;2.27;2.17;;;23.50;87.40;;;;;;4963128;28;20456;-87
2022/06/06 13:06:37;;;;;;;2.53;2.33;;;23.80;88.20;;;;;;4976356;28;21151;-87
2022/06/06 13:09:40;;;;;;;2.73;2.50;;;24.80;86.70;;;;;;4979945;28;20449;-86
2022/06/06 13:12:43;;;;;;;2.83;2.40;;;25.10;86.90;;;;;;4972203;28;20432;-85
2022/06/06 13:15:40;;;;;;;2.67;2.47;;;24.70;86.30;;;;;;4976219;28;20516;-87
2022/06/06 13:18:29;;;;;;;2.00;1.90;;;24.80;85.60;;;;;;4977341;28;20994;-87
2022/06/06 13:20:54;;;;;;;2.63;2.43;;;24.90;86.80;;;;;;4977757;28;20517;-86
2022/06/06 13:23:42;;;;;;;2.57;2.37;;;24.90;84.80;;;;;;4980347;28;20531;-87
2022/06/06 13:26:35;;;;;;;3.67;2.70;;;24.80;85.50;;;;;;4965210;28;21155;-86
2022/06/06 13:29:01;;;;;;;2.57;2.40;;;25.10;85.70;;;;;;4993169;28;20449;-85
2022/06/06 13:31:29;;;;;;;3.00;2.30;;;25.60;83.30;;;;;;4979417;28;20449;-85
2022/06/06 13:34:09;;;;;;;2.60;2.40;;;26.10;80.00;;;;;;4979840;28;20718;-86
2022/06/06 13:37:09;;;;;;;2.30;2.20;;;26.50;80.40;;;;;;4980271;28;20484;-86
2022/06/06 13:40:08;;;;;;;2.50;2.30;;;25.50;77.70;;;;;;4979328;28;21015;-85
2022/06/06 13:42:52;;;;;;;2.70;2.50;;;25.30;81.10;;;;;;4972723;28;20441;-85
2022/06/06 13:45:26;;;;;;;2.73;2.20;;;25.60;79.80;;;;;;4963928;28;20444;-86
2022/06/06 13:48:30;;;;;;;2.57;2.10;;;25.80;79.10;;;;;;4980152;28;20966;-86
2022/06/06 13:50:59;;;;;;;2.43;2.00;;;25.60;79.30;;;;;;4976192;28;20445;-85
2022/06/06 13:53:34;;;;;;;2.47;2.27;;;24.80;78.40;;;;;;4983576;28;20552;-86
2022/06/06 13:56:30;;;;;;;3.63;2.60;;;24.20;79.50;;;;;;4975634;28;20652;-85
2022/06/06 13:59:25;;;;;;;2.90;2.20;;;24.20;82.30;;;;;;4977778;28;20816;-86
2022/06/06 14:02:23;;;;;;;3.10;2.87;;;24.00;83.90;;;;;;4974445;28;20825;-86
2022/06/06 14:05:20;;;;;;;2.53;2.33;;;24.20;82.90;;;;;;4964458;28;20470;-86
2022/06/06 14:07:58;;;;;;;3.47;2.17;;;25.70;81.90;;;;;;4977885;28;20449;-86
2022/06/06 14:10:40;;;;;;;2.43;2.23;;;27.70;77.00;;;;;;4984248;28;20844;-87
2022/06/06 14:13:22;;;;;;;2.40;2.20;;;27.90;76.50;;;;;;4972022;28;20448;-87
2022/06/06 14:15:48;;;;;;;2.67;2.50;;;28.10;76.40;;;;;;4975114;28;20446;-86
2022/06/06 14:18:25;;;;;;;2.00;1.90;;;27.20;78.30;;;;;;4964723;28;20788;-86
2022/06/06 14:20:54;;;;;;;2.43;2.23;;;25.80;81.10;;;;;;4966822;28;20527;-86
2022/06/06 14:23:35;;;;;;;2.63;2.20;;;24.90;83.10;;;;;;4961924;28;20440;-86
2022/06/06 14:26:04;;;;;;;2.80;2.60;;;24.30;85.80;;;;;;4963693;28;20440;-86
2022/06/06 14:28:35;;;;;;;2.60;2.40;;;24.10;85.30;;;;;;4961072;28;20437;-86